createdAt,value
2023-04-10T00:01:41.356Z,13.90
2023-04-10T00:04:08.027Z,13.90
2023-04-10T00:06:34.698Z,13.90
2023-04-10T00:09:01.195Z,14.00
2023-04-10T00:11:27.671Z,13.90
2023-04-10T00:13:54.312Z,14.00
2023-04-10T00:16:20.960Z,13.90
2023-04-10T00:18:47.452Z,13.90
2023-04-10T00:21:13.917Z,13.90
2023-04-10T00:23:40.400Z,13.90
2023-04-10T00:26:06.882Z,13.90
2023-04-10T00:28:33.362Z,13.90
2023-04-10T00:30:59.866Z,13.90
2023-04-10T00:33:29.543Z,13.90
2023-04-10T00:35:56.036Z,13.90
2023-04-10T00:38:22.536Z,13.90
2023-04-10T00:40:49.015Z,14.00
2023-04-10T00:43:15.492Z,13.90
2023-04-10T00:45:49.904Z,13.90
2023-04-10T00:48:17.174Z,13.90
2023-04-10T00:50:43.645Z,13.90
2023-04-10T00:53:10.128Z,14.00
2023-04-10T00:55:36.614Z,13.90
2023-04-10T00:58:03.097Z,13.90
2023-04-10T01:00:29.605Z,13.90
2023-04-10T01:02:59.499Z,13.90
2023-04-10T01:05:26.106Z,13.90
2023-04-10T01:07:52.594Z,13.90
2023-04-10T01:10:19.077Z,13.90
2023-04-10T01:12:45.610Z,13.90
2023-04-10T01:15:12.119Z,13.90
2023-04-10T01:17:38.716Z,13.90
2023-04-10T01:20:05.204Z,13.90
2023-04-10T01:22:31.677Z,13.90
2023-04-10T01:24:58.139Z,13.90
2023-04-10T01:27:24.624Z,13.90
2023-04-10T01:29:51.087Z,13.90
2023-04-10T01:32:17.543Z,14.00
2023-04-10T01:34:44.104Z,13.90
2023-04-10T01:37:10.666Z,13.90
2023-04-10T01:39:37.137Z,13.90
2023-04-10T01:42:03.619Z,13.90
2023-04-10T01:44:30.088Z,13.90
2023-04-10T01:46:56.562Z,13.90
2023-04-10T01:49:23.055Z,13.90
2023-04-10T01:51:49.537Z,13.90
2023-04-10T01:54:16.010Z,13.90
2023-04-10T01:56:42.477Z,13.90
2023-04-10T01:59:08.961Z,13.90
2023-04-10T02:01:35.559Z,13.90
2023-04-10T02:04:02.183Z,13.90
2023-04-10T02:06:28.729Z,13.90
2023-04-10T02:08:55.223Z,13.90
2023-04-10T02:11:21.713Z,13.90
2023-04-10T02:13:48.199Z,13.90
2023-04-10T02:16:14.709Z,13.90
2023-04-10T02:18:41.218Z,13.90
2023-04-10T02:21:07.676Z,14.00
2023-04-10T02:23:34.151Z,13.90
2023-04-10T02:26:00.629Z,13.90
2023-04-10T02:28:27.083Z,13.90
2023-04-10T02:30:53.566Z,13.90
2023-04-10T02:33:20.076Z,13.90
2023-04-10T02:35:46.626Z,13.90
2023-04-10T02:38:17.525Z,13.90
2023-04-10T02:40:44.075Z,13.90
2023-04-10T02:43:11.679Z,13.90
2023-04-10T02:45:41.436Z,13.90
2023-04-10T02:48:07.891Z,13.90
2023-04-10T02:50:34.340Z,13.90
2023-04-10T02:53:00.829Z,13.90
2023-04-10T02:55:27.310Z,13.90
2023-04-10T02:57:53.776Z,13.90
2023-04-10T03:00:20.295Z,13.90
2023-04-10T03:02:46.939Z,13.90
2023-04-10T03:05:13.512Z,13.90
2023-04-10T03:07:39.998Z,13.90
2023-04-10T03:10:06.472Z,13.90
2023-04-10T03:12:32.944Z,13.90
2023-04-10T03:14:59.411Z,13.90
2023-04-10T03:17:25.901Z,13.90
2023-04-10T03:19:53.427Z,13.90
2023-04-10T03:22:19.906Z,14.00
2023-04-10T03:24:46.381Z,13.90
2023-04-10T03:27:12.866Z,13.90
2023-04-10T03:29:39.327Z,13.90
2023-04-10T03:32:05.790Z,13.90
2023-04-10T03:34:32.270Z,13.90
2023-04-10T03:36:58.837Z,13.90
2023-04-10T03:39:25.319Z,13.90
2023-04-10T03:41:51.801Z,13.90
2023-04-10T03:44:18.276Z,13.90
2023-04-10T03:46:44.784Z,13.90
2023-04-10T03:49:11.341Z,13.90
2023-04-10T03:51:37.830Z,13.90
2023-04-10T03:54:04.318Z,13.90
2023-04-10T03:56:30.774Z,13.90
2023-04-10T03:58:57.238Z,13.90
2023-04-10T04:01:23.703Z,13.90
2023-04-10T04:03:53.924Z,13.90
2023-04-10T04:06:20.691Z,13.80
2023-04-10T04:08:47.151Z,13.80
2023-04-10T04:11:13.633Z,13.90
2023-04-10T04:13:40.119Z,13.90
2023-04-10T04:16:06.601Z,13.90
2023-04-10T04:18:33.059Z,13.90
2023-04-10T04:20:59.512Z,13.80
2023-04-10T04:23:25.988Z,13.80
2023-04-10T04:25:52.449Z,13.90
2023-04-10T04:28:18.953Z,13.80
2023-04-10T04:30:45.417Z,13.80
2023-04-10T04:33:11.893Z,13.80
2023-04-10T04:35:38.410Z,13.80
2023-04-10T04:38:04.919Z,13.80
2023-04-10T04:40:31.407Z,13.90
2023-04-10T04:42:57.869Z,13.80
2023-04-10T04:45:24.330Z,13.80
2023-04-10T04:47:50.831Z,13.80
2023-04-10T04:50:17.381Z,13.80
2023-04-10T04:52:43.849Z,13.80
2023-04-10T04:55:10.411Z,13.90
2023-04-10T04:57:36.880Z,13.90
2023-04-10T05:00:03.386Z,13.90
2023-04-10T05:02:29.935Z,13.90
2023-04-10T05:04:56.469Z,13.90
2023-04-10T05:07:22.934Z,13.80
2023-04-10T05:09:49.415Z,13.90
2023-04-10T05:12:15.882Z,13.80
2023-04-10T05:14:42.383Z,13.90
2023-04-10T05:17:08.874Z,13.90
2023-04-10T05:19:35.503Z,13.80
2023-04-10T05:22:01.983Z,13.90
2023-04-10T05:24:28.510Z,13.80
2023-04-10T05:26:54.977Z,13.80
2023-04-10T05:29:21.535Z,13.90
2023-04-10T05:31:48.037Z,13.90
2023-04-10T05:34:14.537Z,13.90
2023-04-10T05:36:41.014Z,13.90
2023-04-10T05:39:07.512Z,13.90
2023-04-10T05:41:34.003Z,13.80
2023-04-10T05:44:01.338Z,13.90
2023-04-10T05:46:27.822Z,13.90
2023-04-10T05:48:54.521Z,13.90
2023-04-10T05:51:21.175Z,13.90
2023-04-10T05:53:47.672Z,13.90
2023-04-10T05:56:14.167Z,13.90
2023-04-10T05:58:40.685Z,13.90
2023-04-10T06:01:07.165Z,13.90
2023-04-10T06:03:33.811Z,14.00
2023-04-10T06:06:00.363Z,14.00
2023-04-10T06:08:26.832Z,14.00
2023-04-10T06:10:53.300Z,14.00
2023-04-10T06:13:19.774Z,14.00
2023-04-10T06:15:46.267Z,14.00
2023-04-10T06:18:12.740Z,14.00
2023-04-10T06:20:39.208Z,14.10
2023-04-10T06:23:05.671Z,14.10
2023-04-10T06:25:32.150Z,14.10
2023-04-10T06:27:58.628Z,14.10
2023-04-10T06:30:25.093Z,14.10
2023-04-10T06:32:51.619Z,14.10
2023-04-10T06:35:18.117Z,14.10
2023-04-10T06:37:44.576Z,14.10
2023-04-10T06:40:11.644Z,14.10
2023-04-10T06:42:38.133Z,14.00
2023-04-10T06:45:04.626Z,14.00
2023-04-10T06:47:31.144Z,14.10
2023-04-10T06:49:57.660Z,14.00
2023-04-10T06:52:29.712Z,14.00
2023-04-10T06:54:56.213Z,14.00
2023-04-10T06:57:22.695Z,14.00
2023-04-10T06:59:49.209Z,14.10
2023-04-10T07:02:15.736Z,14.10
2023-04-10T07:04:42.288Z,14.10
2023-04-10T07:07:08.738Z,14.00
2023-04-10T07:09:35.200Z,14.10
2023-04-10T07:12:01.680Z,14.10
2023-04-10T07:14:28.164Z,14.10
2023-04-10T07:16:54.641Z,14.00
2023-04-10T07:19:21.123Z,14.00
2023-04-10T07:21:47.607Z,14.00
2023-04-10T07:24:14.078Z,14.00
2023-04-10T07:26:40.562Z,14.00
2023-04-10T07:29:07.050Z,14.00
2023-04-10T07:31:33.594Z,14.00
2023-04-10T07:34:00.179Z,14.00
2023-04-10T07:36:26.658Z,14.00
2023-04-10T07:38:53.427Z,13.90
2023-04-10T07:41:20.166Z,13.90
2023-04-10T07:43:46.641Z,14.10
2023-04-10T07:46:13.187Z,14.00
2023-04-10T07:48:39.712Z,14.00
2023-04-10T07:51:06.184Z,13.90
2023-04-10T07:53:32.644Z,14.00
2023-04-10T07:55:59.114Z,14.00
2023-04-10T07:58:25.592Z,14.00
2023-04-10T08:00:52.087Z,14.00
2023-04-10T08:03:18.780Z,14.00
2023-04-10T08:05:45.378Z,14.00
2023-04-10T08:08:11.840Z,14.00
2023-04-10T08:10:38.347Z,14.00
2023-04-10T08:13:04.819Z,14.00
2023-04-10T08:15:31.292Z,13.90
2023-04-10T08:17:57.862Z,14.00
2023-04-10T08:20:24.407Z,14.10
2023-04-10T08:22:50.906Z,14.00
2023-04-10T08:25:17.367Z,14.00
2023-04-10T08:27:43.846Z,14.00
2023-04-10T08:30:10.314Z,13.90
2023-04-10T08:32:36.824Z,13.90
2023-04-10T08:35:03.314Z,13.90
2023-04-10T08:37:29.805Z,14.00
2023-04-10T08:39:56.266Z,14.00
2023-04-10T08:42:22.746Z,13.90
2023-04-10T08:44:49.212Z,13.90
2023-04-10T08:47:15.708Z,13.90
2023-04-10T08:49:42.196Z,14.00
2023-04-10T08:52:08.665Z,14.00
2023-04-10T08:54:35.146Z,14.00
2023-04-10T08:57:01.726Z,13.90
2023-04-10T08:59:28.260Z,13.90
2023-04-10T09:01:54.843Z,14.00
2023-04-10T09:04:21.688Z,14.00
2023-04-10T09:06:48.390Z,14.00
2023-04-10T09:09:14.884Z,14.00
2023-04-10T09:11:41.386Z,14.10
2023-04-10T09:14:07.864Z,14.00
2023-04-10T09:16:35.716Z,14.00
2023-04-10T09:19:02.201Z,14.00
2023-04-10T09:21:28.756Z,14.10
2023-04-10T09:23:55.489Z,14.10
2023-04-10T09:26:23.752Z,14.10
2023-04-10T09:28:50.239Z,14.10
2023-04-10T09:31:16.728Z,14.10
2023-04-10T09:33:43.228Z,14.00
2023-04-10T09:36:09.754Z,14.00
2023-04-10T09:38:36.249Z,14.00
2023-04-10T09:41:02.719Z,14.10
2023-04-10T09:43:29.209Z,14.00
2023-04-10T09:45:55.670Z,14.00
2023-04-10T09:48:22.133Z,14.00
2023-04-10T09:50:48.613Z,14.10
2023-04-10T09:53:15.109Z,14.00
2023-04-10T09:55:41.598Z,14.00
2023-04-10T09:58:08.122Z,14.10
2023-04-10T10:00:34.631Z,14.00
2023-04-10T10:03:01.341Z,14.00
2023-04-10T10:05:27.957Z,14.10
2023-04-10T10:07:54.434Z,14.00
2023-04-10T10:10:20.913Z,14.00
2023-04-10T10:12:47.432Z,14.00
2023-04-10T10:15:13.948Z,14.10
2023-04-10T10:17:40.470Z,14.30
2023-04-10T10:20:06.981Z,14.10
2023-04-10T10:22:33.467Z,14.10
2023-04-10T10:24:59.958Z,14.00
2023-04-10T10:27:26.422Z,14.20
2023-04-10T10:29:52.892Z,14.20
2023-04-10T10:32:19.368Z,14.20
2023-04-10T10:34:45.845Z,14.10
2023-04-10T10:37:12.326Z,14.20
2023-04-10T10:39:38.812Z,14.10
2023-04-10T10:42:05.285Z,14.20
2023-04-10T10:44:31.755Z,14.10
2023-04-10T10:46:58.244Z,14.10
2023-04-10T10:49:24.718Z,14.20
2023-04-10T10:51:51.200Z,14.10
2023-04-10T10:54:17.666Z,14.00
2023-04-10T10:56:44.145Z,14.10
2023-04-10T10:59:10.615Z,14.10
2023-04-10T11:01:37.120Z,14.10
2023-04-10T11:04:03.820Z,14.10
2023-04-10T11:06:30.387Z,14.20
2023-04-10T11:08:57.146Z,14.30
2023-04-10T11:11:23.975Z,14.40
2023-04-10T11:13:50.486Z,14.30
2023-04-10T11:16:16.996Z,14.40
2023-04-10T11:18:43.501Z,14.40
2023-04-10T11:21:09.969Z,14.40
2023-04-10T11:23:36.474Z,14.30
2023-04-10T11:26:02.942Z,14.30
2023-04-10T11:28:29.407Z,14.20
2023-04-10T11:30:55.877Z,14.30
2023-04-10T11:33:22.343Z,14.30
2023-04-10T11:35:48.888Z,14.40
2023-04-10T11:38:15.437Z,14.40
2023-04-10T11:40:41.964Z,14.50
2023-04-10T11:43:08.435Z,14.50
2023-04-10T11:45:34.945Z,14.50
2023-04-10T11:48:01.452Z,14.60
2023-04-10T11:50:27.962Z,14.70
2023-04-10T11:52:55.989Z,14.60
2023-04-10T11:55:23.037Z,14.50
2023-04-10T11:57:49.510Z,14.60
2023-04-10T12:00:15.995Z,14.60
2023-04-10T12:02:42.595Z,14.50
2023-04-10T12:05:09.223Z,14.70
2023-04-10T12:07:35.728Z,14.70
2023-04-10T12:10:02.204Z,14.70
2023-04-10T12:12:28.664Z,14.70
2023-04-10T12:14:55.156Z,14.60
2023-04-10T12:17:21.669Z,14.60
2023-04-10T12:19:48.134Z,14.70
2023-04-10T12:22:14.608Z,14.60
2023-04-10T12:24:41.084Z,14.70
2023-04-10T12:27:07.592Z,14.80
2023-04-10T12:29:34.078Z,14.90
2023-04-10T12:32:00.559Z,14.90
2023-04-10T12:34:27.045Z,14.90
2023-04-10T12:36:53.512Z,14.80
2023-04-10T12:39:20.010Z,14.80
2023-04-10T12:41:46.460Z,14.80
2023-04-10T12:44:12.996Z,14.90
2023-04-10T12:46:39.535Z,14.80
2023-04-10T12:49:06.040Z,14.90
2023-04-10T12:51:32.511Z,14.90
2023-04-10T12:53:58.978Z,14.90
2023-04-10T12:56:25.455Z,15.00
2023-04-10T12:58:52.087Z,14.90
2023-04-10T13:01:18.709Z,14.80
2023-04-10T13:03:45.363Z,14.90
2023-04-10T13:09:01.998Z,14.90
2023-04-10T13:11:28.507Z,14.90
2023-04-10T13:13:54.965Z,15.00
2023-04-10T13:16:21.480Z,15.00
2023-04-10T13:18:48.008Z,14.90
2023-04-10T13:21:14.484Z,15.00
2023-04-10T13:23:40.958Z,14.90
2023-04-10T13:26:07.421Z,14.90
2023-04-10T13:28:33.873Z,15.00
2023-04-10T13:31:00.393Z,15.00
2023-04-10T13:33:26.926Z,14.90
2023-04-10T13:35:53.505Z,15.00
2023-04-10T13:38:21.286Z,15.00
2023-04-10T13:40:48.014Z,14.90
2023-04-10T13:43:14.479Z,15.00
2023-04-10T13:45:40.969Z,14.90
2023-04-10T13:48:07.498Z,15.00
2023-04-10T13:50:34.071Z,15.00
2023-04-10T13:53:00.554Z,15.00
2023-04-10T13:55:27.008Z,14.80
2023-04-10T13:57:53.485Z,15.00
2023-04-10T14:00:19.948Z,14.80
2023-04-10T14:02:46.587Z,14.90
2023-04-10T14:05:13.122Z,14.80
2023-04-10T14:07:39.815Z,14.90
2023-04-10T14:10:06.277Z,15.00
2023-04-10T14:12:32.766Z,15.00
2023-04-10T14:14:59.215Z,15.00
2023-04-10T14:17:25.795Z,15.00
2023-04-10T14:19:52.315Z,15.00
2023-04-10T14:22:18.832Z,15.00
2023-04-10T14:24:45.297Z,15.10
2023-04-10T14:27:13.317Z,15.10
2023-04-10T14:29:47.367Z,15.10
2023-04-10T14:32:20.681Z,15.10
2023-04-10T14:34:47.197Z,15.00
2023-04-10T14:37:15.300Z,15.10
2023-04-10T14:39:42.083Z,15.10
2023-04-10T14:42:08.554Z,15.10
2023-04-10T14:44:35.037Z,15.10
2023-04-10T14:47:01.521Z,15.10
2023-04-10T14:49:28.003Z,15.00
2023-04-10T14:51:54.478Z,15.10
2023-04-10T14:54:20.942Z,14.90
2023-04-10T14:56:47.444Z,15.00
2023-04-10T14:59:13.909Z,15.00
2023-04-10T15:01:40.606Z,15.10
2023-04-10T15:04:07.199Z,15.10
2023-04-10T15:06:33.732Z,15.00
2023-04-10T15:09:00.214Z,15.10
2023-04-10T15:11:26.685Z,15.10
2023-04-10T15:13:53.412Z,15.10
2023-04-10T15:16:20.111Z,15.00
2023-04-10T15:18:46.662Z,15.10
2023-04-10T15:21:13.127Z,15.00
2023-04-10T15:23:39.586Z,15.10
2023-04-10T15:26:06.065Z,15.00
2023-04-10T15:28:32.551Z,15.10
2023-04-10T15:30:59.049Z,15.10
2023-04-10T15:33:25.574Z,15.10
2023-04-10T15:35:52.241Z,15.00
2023-04-10T15:38:18.746Z,15.00
2023-04-10T15:40:45.223Z,15.00
2023-04-10T15:43:11.698Z,15.00
2023-04-10T15:45:38.166Z,15.10
2023-04-10T15:48:04.802Z,15.10
2023-04-10T15:50:31.424Z,15.00
2023-04-10T15:52:57.925Z,15.00
2023-04-10T15:55:24.431Z,15.10
2023-04-10T15:57:50.896Z,15.10
2023-04-10T16:00:17.370Z,15.00
2023-04-10T16:02:44.185Z,14.90
2023-04-10T16:05:10.876Z,15.00
2023-04-10T16:07:37.381Z,15.10
2023-04-10T16:10:03.876Z,15.00
2023-04-10T16:12:30.373Z,14.90
2023-04-10T16:14:56.837Z,15.00
2023-04-10T16:17:23.352Z,15.00
2023-04-10T16:19:49.837Z,15.00
2023-04-10T16:22:16.292Z,15.00
2023-04-10T16:24:42.778Z,15.00
2023-04-10T16:27:12.275Z,14.80
2023-04-10T16:29:38.747Z,14.80
2023-04-10T16:32:05.214Z,14.90
2023-04-10T16:34:31.694Z,14.90
2023-04-10T16:36:58.179Z,15.00
2023-04-10T16:39:24.652Z,14.90
2023-04-10T16:41:51.108Z,15.00
2023-04-10T16:44:17.576Z,14.90
2023-04-10T16:46:44.089Z,14.90
2023-04-10T16:49:10.622Z,14.80
2023-04-10T16:51:37.103Z,15.00
2023-04-10T16:54:03.571Z,14.90
2023-04-10T16:56:30.041Z,14.90
2023-04-10T16:58:56.857Z,15.00
2023-04-10T17:01:23.701Z,14.90
2023-04-10T17:03:50.367Z,15.00
2023-04-10T17:06:16.860Z,15.00
2023-04-10T17:08:43.360Z,14.90
2023-04-10T17:11:09.835Z,14.90
2023-04-10T17:13:36.313Z,14.90
2023-04-10T17:16:02.785Z,15.00
2023-04-10T17:18:29.255Z,14.90
2023-04-10T17:20:55.722Z,14.90
2023-04-10T17:23:22.197Z,15.00
2023-04-10T17:25:48.727Z,15.00
2023-04-10T17:28:15.240Z,15.00
2023-04-10T17:30:41.706Z,15.10
2023-04-10T17:33:08.216Z,15.10
2023-04-10T17:35:34.754Z,14.90
2023-04-10T17:38:01.236Z,15.00
2023-04-10T17:40:27.724Z,15.10
2023-04-10T17:42:54.194Z,15.00
2023-04-10T17:45:20.665Z,15.00
2023-04-10T17:47:47.157Z,14.90
2023-04-10T17:50:13.669Z,14.90
2023-04-10T17:52:40.131Z,15.00
2023-04-10T17:55:06.597Z,15.10
2023-04-10T17:57:33.070Z,15.00
2023-04-10T17:59:59.538Z,15.00
2023-04-10T18:02:26.080Z,15.00
2023-04-10T18:04:52.650Z,14.90
2023-04-10T18:07:19.125Z,14.90
2023-04-10T18:09:45.587Z,15.00
2023-04-10T18:12:12.055Z,14.90
2023-04-10T18:14:38.538Z,14.90
2023-04-10T18:17:05.058Z,15.00
2023-04-10T18:19:31.592Z,14.90
2023-04-10T18:21:58.055Z,14.90
2023-04-10T18:24:24.556Z,14.90
2023-04-10T18:26:51.030Z,15.00
2023-04-10T18:29:17.499Z,15.00
2023-04-10T18:31:43.970Z,14.90
2023-04-10T18:34:10.711Z,14.90
2023-04-10T18:36:37.291Z,14.80
2023-04-10T18:39:03.765Z,14.80
2023-04-10T18:41:30.225Z,14.80
2023-04-10T18:44:05.368Z,14.90
2023-04-10T18:46:32.335Z,14.90
2023-04-10T18:48:59.108Z,14.90
2023-04-10T18:51:25.607Z,14.90
2023-04-10T18:53:52.172Z,14.90
2023-04-10T18:56:18.767Z,14.90
2023-04-10T18:58:46.460Z,14.90
2023-04-10T19:01:14.052Z,14.70
2023-04-10T19:03:40.770Z,14.90
2023-04-10T19:06:07.465Z,14.90
2023-04-10T19:08:33.935Z,14.90
2023-04-10T19:11:00.434Z,15.00
2023-04-10T19:13:30.377Z,14.90
2023-04-10T19:15:56.870Z,15.00
2023-04-10T19:18:23.322Z,14.90
2023-04-10T19:20:52.995Z,14.90
2023-04-10T19:23:20.044Z,14.90
2023-04-10T19:25:46.530Z,14.80
2023-04-10T19:28:18.446Z,14.90
2023-04-10T19:30:44.937Z,14.90
2023-04-10T19:33:11.413Z,14.90
2023-04-10T19:35:37.930Z,14.80
2023-04-10T19:38:04.421Z,14.90
2023-04-10T19:40:30.894Z,14.90
2023-04-10T19:43:00.517Z,14.90
2023-04-10T19:45:27.036Z,14.90
2023-04-10T19:47:53.563Z,14.90
2023-04-10T19:50:20.050Z,14.80
2023-04-10T19:52:46.549Z,14.70
2023-04-10T19:55:13.235Z,14.70
2023-04-10T19:57:39.723Z,14.70
2023-04-10T20:00:06.252Z,14.70
2023-04-10T20:02:32.995Z,14.70
2023-04-10T20:04:59.759Z,14.70
2023-04-10T20:07:26.286Z,14.60
2023-04-10T20:09:52.771Z,14.60
2023-04-10T20:12:19.257Z,14.60
2023-04-10T20:14:45.728Z,14.60
2023-04-10T20:17:12.192Z,14.60
2023-04-10T20:19:38.685Z,14.50
2023-04-10T20:22:05.180Z,14.60
2023-04-10T20:24:31.658Z,14.50
2023-04-10T20:26:58.121Z,14.60
2023-04-10T20:29:24.594Z,14.60
2023-04-10T20:31:51.084Z,14.60
2023-04-10T20:34:17.607Z,14.60
2023-04-10T20:36:44.112Z,14.60
2023-04-10T20:39:10.583Z,14.50
2023-04-10T20:41:37.066Z,14.50
2023-04-10T20:44:03.524Z,14.40
2023-04-10T20:46:30.027Z,14.40
2023-04-10T20:48:56.529Z,14.40
2023-04-10T20:51:22.977Z,14.40
2023-04-10T20:53:49.424Z,14.50
2023-04-10T20:56:15.948Z,14.50
2023-04-10T20:58:42.417Z,14.50
2023-04-10T21:01:09.025Z,14.50
2023-04-10T21:03:35.669Z,14.50
2023-04-10T21:06:02.159Z,14.50
2023-04-10T21:08:28.621Z,14.50
2023-04-10T21:10:55.082Z,14.60
2023-04-10T21:13:21.564Z,14.50
2023-04-10T21:15:48.044Z,14.60
2023-04-10T21:18:14.543Z,14.50
2023-04-10T21:20:41.024Z,14.40
2023-04-10T21:23:07.514Z,14.50
2023-04-10T21:25:33.991Z,14.50
2023-04-10T21:28:00.526Z,14.60
2023-04-10T21:30:26.969Z,14.50
2023-04-10T21:32:53.488Z,14.50
2023-04-10T21:35:19.953Z,14.40
2023-04-10T21:37:46.411Z,14.50
2023-04-10T21:40:12.892Z,14.40
2023-04-10T21:42:39.377Z,14.50
2023-04-10T21:45:05.853Z,14.50
2023-04-10T21:47:32.335Z,14.50
2023-04-10T21:49:58.811Z,14.40
2023-04-10T21:52:25.275Z,14.40
2023-04-10T21:54:51.734Z,14.50
2023-04-10T21:57:18.216Z,14.50
2023-04-10T21:59:44.712Z,14.50
2023-04-10T22:02:11.243Z,14.50
2023-04-10T22:04:47.838Z,14.50
2023-04-10T22:07:20.266Z,14.50
2023-04-10T22:09:46.747Z,14.50
2023-04-10T22:12:13.240Z,14.50
2023-04-10T22:14:39.730Z,14.50
2023-04-10T22:17:06.274Z,14.60
2023-04-10T22:19:32.771Z,14.50
2023-04-10T22:21:59.238Z,14.60
2023-04-10T22:24:25.731Z,14.60
2023-04-10T22:26:52.222Z,14.60
2023-04-10T22:29:18.710Z,14.60
2023-04-10T22:31:45.196Z,14.60
2023-04-10T22:34:11.695Z,14.60
2023-04-10T22:36:38.174Z,14.60
2023-04-10T22:39:04.669Z,14.50
2023-04-10T22:41:31.149Z,14.40
2023-04-10T22:43:57.623Z,14.50
2023-04-10T22:46:24.118Z,14.50
2023-04-10T22:48:50.616Z,14.60
2023-04-10T22:51:17.082Z,14.60
2023-04-10T22:53:43.594Z,14.50
2023-04-10T22:56:10.051Z,14.60
2023-04-10T22:58:36.545Z,14.60
2023-04-10T23:01:03.027Z,14.60
2023-04-10T23:03:29.547Z,14.60
2023-04-10T23:05:56.045Z,14.60
2023-04-10T23:08:22.516Z,14.50
2023-04-10T23:10:48.987Z,14.50
2023-04-10T23:13:15.461Z,14.40
2023-04-10T23:15:42.003Z,14.50
2023-04-10T23:18:08.526Z,14.40
2023-04-10T23:20:35.054Z,14.40
2023-04-10T23:23:01.556Z,14.50
2023-04-10T23:25:28.071Z,14.50
2023-04-10T23:27:54.565Z,14.50
2023-04-10T23:30:21.044Z,14.50
2023-04-10T23:32:47.553Z,14.50
2023-04-10T23:35:14.086Z,14.40
2023-04-10T23:37:40.553Z,14.40
2023-04-10T23:40:07.029Z,14.40
2023-04-10T23:42:33.502Z,14.40
2023-04-10T23:44:59.990Z,14.40
2023-04-10T23:47:26.450Z,14.40
2023-04-10T23:49:52.942Z,14.40
2023-04-10T23:52:19.401Z,14.30
2023-04-10T23:54:45.881Z,14.40
2023-04-10T23:57:12.344Z,14.30
2023-04-10T23:59:38.824Z,14.30
